sensor_id;sensor_type;location;lat;lon;timestamp;pressure;altitude;pressure_sealevel;temperature;humidity
65758;BME280;52495;52.208;5.158;2022-09-09T00:02:05;100676.41;;;16.82;81.01
65758;BME280;52495;52.208;5.158;2022-09-09T00:04:37;100671.19;;;16.82;81.22
65758;BME280;52495;52.208;5.158;2022-09-09T00:07:07;100669.50;;;16.81;81.16
65758;BME280;52495;52.208;5.158;2022-09-09T00:09:39;100673.81;;;16.82;81.00
65758;BME280;52495;52.208;5.158;2022-09-09T00:12:10;100663.47;;;16.81;81.25
65758;BME280;52495;52.208;5.158;2022-09-09T00:14:39;100656.53;;;16.80;81.43
65758;BME280;52495;52.208;5.158;2022-09-09T00:17:09;100665.19;;;16.80;81.51
65758;BME280;52495;52.208;5.158;2022-09-09T00:19:40;100669.63;;;16.78;81.22
65758;BME280;52495;52.208;5.158;2022-09-09T00:22:13;100670.69;;;16.74;81.64
65758;BME280;52495;52.208;5.158;2022-09-09T00:24:42;100669.06;;;16.72;81.92
65758;BME280;52495;52.208;5.158;2022-09-09T00:27:12;100667.34;;;16.72;81.94
65758;BME280;52495;52.208;5.158;2022-09-09T00:29:47;100668.25;;;16.71;82.08
65758;BME280;52495;52.208;5.158;2022-09-09T00:32:18;100654.44;;;16.69;81.35
65758;BME280;52495;52.208;5.158;2022-09-09T00:34:52;100664.13;;;16.65;82.04
65758;BME280;52495;52.208;5.158;2022-09-09T00:37:21;100665.91;;;16.65;82.03
65758;BME280;52495;52.208;5.158;2022-09-09T00:39:48;100658.00;;;16.66;81.94
65758;BME280;52495;52.208;5.158;2022-09-09T00:42:18;100662.53;;;16.63;82.09
65758;BME280;52495;52.208;5.158;2022-09-09T00:44:52;100657.44;;;16.60;81.99
65758;BME280;52495;52.208;5.158;2022-09-09T00:47:24;100659.34;;;16.56;82.34
65758;BME280;52495;52.208;5.158;2022-09-09T00:49:59;100661.41;;;16.49;82.11
65758;BME280;52495;52.208;5.158;2022-09-09T00:52:30;100663.13;;;16.49;82.29
65758;BME280;52495;52.208;5.158;2022-09-09T00:55:02;100670.13;;;16.48;82.77
65758;BME280;52495;52.208;5.158;2022-09-09T00:57:31;100658.09;;;16.46;82.83
65758;BME280;52495;52.208;5.158;2022-09-09T01:02:32;100663.34;;;16.44;82.53
65758;BME280;52495;52.208;5.158;2022-09-09T01:05:05;100659.97;;;16.42;82.66
65758;BME280;52495;52.208;5.158;2022-09-09T01:07:33;100660.97;;;16.39;82.48
65758;BME280;52495;52.208;5.158;2022-09-09T01:10:00;100656.75;;;16.37;82.42
65758;BME280;52495;52.208;5.158;2022-09-09T01:12:33;100655.97;;;16.35;82.34
65758;BME280;52495;52.208;5.158;2022-09-09T01:15:09;100658.78;;;16.30;82.35
65758;BME280;52495;52.208;5.158;2022-09-09T01:17:50;100664.13;;;16.27;82.74
65758;BME280;52495;52.208;5.158;2022-09-09T01:20:19;100661.63;;;16.24;82.91
65758;BME280;52495;52.208;5.158;2022-09-09T01:23:04;100660.03;;;16.21;82.88
65758;BME280;52495;52.208;5.158;2022-09-09T01:25:56;100661.72;;;16.22;83.07
65758;BME280;52495;52.208;5.158;2022-09-09T01:28:31;100657.47;;;16.20;82.97
65758;BME280;52495;52.208;5.158;2022-09-09T01:31:04;100653.25;;;16.17;83.15
65758;BME280;52495;52.208;5.158;2022-09-09T01:33:39;100640.47;;;16.11;82.94
65758;BME280;52495;52.208;5.158;2022-09-09T01:36:08;100648.28;;;16.11;83.14
65758;BME280;52495;52.208;5.158;2022-09-09T01:38:44;100638.88;;;16.08;83.29
65758;BME280;52495;52.208;5.158;2022-09-09T01:41:12;100638.91;;;16.07;83.00
65758;BME280;52495;52.208;5.158;2022-09-09T01:43:47;100635.63;;;16.03;83.20
65758;BME280;52495;52.208;5.158;2022-09-09T01:46:14;100641.84;;;15.99;83.34
65758;BME280;52495;52.208;5.158;2022-09-09T01:48:41;100635.81;;;15.99;83.26
65758;BME280;52495;52.208;5.158;2022-09-09T01:51:09;100633.25;;;15.97;83.56
65758;BME280;52495;52.208;5.158;2022-09-09T01:53:36;100643.06;;;15.92;83.27
65758;BME280;52495;52.208;5.158;2022-09-09T01:56:07;100631.06;;;15.88;83.46
65758;BME280;52495;52.208;5.158;2022-09-09T01:58:46;100639.97;;;15.82;83.53
65758;BME280;52495;52.208;5.158;2022-09-09T02:01:15;100628.19;;;15.73;83.84
65758;BME280;52495;52.208;5.158;2022-09-09T02:03:47;100629.00;;;15.74;83.94
65758;BME280;52495;52.208;5.158;2022-09-09T02:06:21;100628.19;;;15.73;84.36
65758;BME280;52495;52.208;5.158;2022-09-09T02:08:55;100630.97;;;15.69;84.19
65758;BME280;52495;52.208;5.158;2022-09-09T02:11:24;100625.00;;;15.67;84.46
65758;BME280;52495;52.208;5.158;2022-09-09T02:14:16;100627.59;;;15.67;84.52
65758;BME280;52495;52.208;5.158;2022-09-09T02:16:47;100627.63;;;15.65;84.57
65758;BME280;52495;52.208;5.158;2022-09-09T02:19:15;100627.63;;;15.65;84.58
65758;BME280;52495;52.208;5.158;2022-09-09T02:22:05;100623.22;;;15.67;84.47
65758;BME280;52495;52.208;5.158;2022-09-09T02:24:32;100622.38;;;15.67;84.58
65758;BME280;52495;52.208;5.158;2022-09-09T02:27:11;100628.44;;;15.67;84.55
65758;BME280;52495;52.208;5.158;2022-09-09T02:29:41;100622.38;;;15.67;84.36
65758;BME280;52495;52.208;5.158;2022-09-09T02:32:11;100623.31;;;15.66;84.33
65758;BME280;52495;52.208;5.158;2022-09-09T02:34:40;100619.91;;;15.63;84.51
65758;BME280;52495;52.208;5.158;2022-09-09T02:37:08;100620.03;;;15.60;84.54
65758;BME280;52495;52.208;5.158;2022-09-09T02:39:36;100623.53;;;15.59;84.43
65758;BME280;52495;52.208;5.158;2022-09-09T02:42:04;100624.41;;;15.60;84.40
65758;BME280;52495;52.208;5.158;2022-09-09T02:44:32;100627.91;;;15.59;84.39
65758;BME280;52495;52.208;5.158;2022-09-09T02:49:48;100619.38;;;15.55;84.35
65758;BME280;52495;52.208;5.158;2022-09-09T02:52:21;100619.44;;;15.54;84.35
65758;BME280;52495;52.208;5.158;2022-09-09T02:54:52;100618.75;;;15.50;84.51
65758;BME280;52495;52.208;5.158;2022-09-09T02:57:25;100617.03;;;15.49;84.60
65758;BME280;52495;52.208;5.158;2022-09-09T02:59:53;100618.78;;;15.48;84.58
65758;BME280;52495;52.208;5.158;2022-09-09T03:02:23;100611.97;;;15.46;84.52
65758;BME280;52495;52.208;5.158;2022-09-09T03:04:55;100615.41;;;15.46;84.68
65758;BME280;52495;52.208;5.158;2022-09-09T03:07:21;100612.03;;;15.44;84.82
65758;BME280;52495;52.208;5.158;2022-09-09T03:09:50;100611.97;;;15.46;84.77
65758;BME280;52495;52.208;5.158;2022-09-09T03:12:17;100612.75;;;15.48;84.69
65758;BME280;52495;52.208;5.158;2022-09-09T03:14:44;100613.66;;;15.47;84.69
65758;BME280;52495;52.208;5.158;2022-09-09T03:17:12;100599.78;;;15.46;84.77
65758;BME280;52495;52.208;5.158;2022-09-09T03:19:45;100602.47;;;15.45;84.84
65758;BME280;52495;52.208;5.158;2022-09-09T03:22:16;100600.72;;;15.45;84.64
65758;BME280;52495;52.208;5.158;2022-09-09T03:24:43;100598.16;;;15.44;84.77
65758;BME280;52495;52.208;5.158;2022-09-09T03:27:12;100599.06;;;15.43;84.84
65758;BME280;52495;52.208;5.158;2022-09-09T03:29:39;100595.69;;;15.41;84.75
65758;BME280;52495;52.208;5.158;2022-09-09T03:32:10;100608.81;;;15.38;84.69
65758;BME280;52495;52.208;5.158;2022-09-09T03:34:38;100606.38;;;15.35;84.87
65758;BME280;52495;52.208;5.158;2022-09-09T03:37:08;100607.31;;;15.32;85.08
65758;BME280;52495;52.208;5.158;2022-09-09T03:39:36;100605.69;;;15.29;85.05
65758;BME280;52495;52.208;5.158;2022-09-09T03:42:03;100612.72;;;15.27;85.11
65758;BME280;52495;52.208;5.158;2022-09-09T03:44:31;100614.41;;;15.28;84.98
65758;BME280;52495;52.208;5.158;2022-09-09T03:46:59;100598.91;;;15.25;85.21
65758;BME280;52495;52.208;5.158;2022-09-09T03:49:26;100602.50;;;15.23;85.25
65758;BME280;52495;52.208;5.158;2022-09-09T03:51:54;100606.13;;;15.18;85.27
65758;BME280;52495;52.208;5.158;2022-09-09T03:54:22;100600.94;;;15.18;85.53
65758;BME280;52495;52.208;5.158;2022-09-09T03:56:49;100601.00;;;15.17;85.79
65758;BME280;52495;52.208;5.158;2022-09-09T03:59:16;100604.44;;;15.17;85.79
65758;BME280;52495;52.208;5.158;2022-09-09T04:01:43;100604.44;;;15.17;85.50
65758;BME280;52495;52.208;5.158;2022-09-09T04:04:10;100606.31;;;15.14;85.61
65758;BME280;52495;52.208;5.158;2022-09-09T04:06:37;100604.63;;;15.13;85.82
65758;BME280;52495;52.208;5.158;2022-09-09T04:09:04;100611.56;;;15.12;85.87
65758;BME280;52495;52.208;5.158;2022-09-09T04:11:31;100603.75;;;15.12;85.63
65758;BME280;52495;52.208;5.158;2022-09-09T04:14:00;100597.97;;;15.06;85.64
65758;BME280;52495;52.208;5.158;2022-09-09T04:16:28;100592.72;;;15.07;86.03
65758;BME280;52495;52.208;5.158;2022-09-09T04:18:55;100599.66;;;15.07;86.13
65758;BME280;52495;52.208;5.158;2022-09-09T04:21:23;100591.84;;;15.07;86.14
65758;BME280;52495;52.208;5.158;2022-09-09T04:23:49;100595.25;;;15.09;85.95
65758;BME280;52495;52.208;5.158;2022-09-09T04:26:17;100591.06;;;15.05;85.83
65758;BME280;52495;52.208;5.158;2022-09-09T04:28:44;100588.47;;;15.05;86.04
65758;BME280;52495;52.208;5.158;2022-09-09T04:31:18;100583.28;;;15.05;86.04
65758;BME280;52495;52.208;5.158;2022-09-09T04:33:47;100583.28;;;15.05;86.09
65758;BME280;52495;52.208;5.158;2022-09-09T04:36:15;100581.66;;;15.02;86.04
65758;BME280;52495;52.208;5.158;2022-09-09T04:38:43;100581.56;;;15.03;85.84
65758;BME280;52495;52.208;5.158;2022-09-09T04:41:10;100581.66;;;15.02;86.05
65758;BME280;52495;52.208;5.158;2022-09-09T04:43:39;100574.75;;;15.01;85.89
65758;BME280;52495;52.208;5.158;2022-09-09T04:46:08;100571.25;;;15.02;86.25
65758;BME280;52495;52.208;5.158;2022-09-09T04:48:36;100572.88;;;15.05;85.40
65758;BME280;52495;52.208;5.158;2022-09-09T04:51:05;100567.88;;;15.00;85.92
65758;BME280;52495;52.208;5.158;2022-09-09T04:53:33;100569.66;;;14.98;86.05
65758;BME280;52495;52.208;5.158;2022-09-09T04:56:03;100568.88;;;14.96;85.80
65758;BME280;52495;52.208;5.158;2022-09-09T04:58:34;100574.16;;;14.94;86.21
65758;BME280;52495;52.208;5.158;2022-09-09T05:01:05;100571.63;;;14.93;86.32
65758;BME280;52495;52.208;5.158;2022-09-09T05:03:32;100575.19;;;14.90;86.53
65758;BME280;52495;52.208;5.158;2022-09-09T05:06:04;100565.69;;;14.89;86.41
65758;BME280;52495;52.208;5.158;2022-09-09T05:08:31;100572.59;;;14.90;86.82
65758;BME280;52495;52.208;5.158;2022-09-09T05:10:58;100569.16;;;14.90;87.08
65758;BME280;52495;52.208;5.158;2022-09-09T05:13:25;100573.56;;;14.87;87.04
65758;BME280;52495;52.208;5.158;2022-09-09T05:15:52;100566.56;;;14.90;87.09
65758;BME280;52495;52.208;5.158;2022-09-09T05:18:19;100565.56;;;14.92;86.93
65758;BME280;52495;52.208;5.158;2022-09-09T05:20:47;100562.06;;;14.93;86.78
65758;BME280;52495;52.208;5.158;2022-09-09T05:23:15;100563.75;;;14.94;86.93
65758;BME280;52495;52.208;5.158;2022-09-09T05:25:42;100559.47;;;14.93;86.80
65758;BME280;52495;52.208;5.158;2022-09-09T05:28:09;100570.84;;;14.91;87.09
65758;BME280;52495;52.208;5.158;2022-09-09T05:30:36;100576.03;;;14.91;87.20
65758;BME280;52495;52.208;5.158;2022-09-09T05:33:04;100573.38;;;14.92;87.29
65758;BME280;52495;52.208;5.158;2022-09-09T05:35:32;100569.03;;;14.93;87.66
65758;BME280;52495;52.208;5.158;2022-09-09T05:37:59;100577.53;;;14.96;87.49
65758;BME280;52495;52.208;5.158;2022-09-09T05:40:26;100571.38;;;14.99;86.84
65758;BME280;52495;52.208;5.158;2022-09-09T05:42:53;100562.75;;;14.98;86.94
65758;BME280;52495;52.208;5.158;2022-09-09T05:45:20;100560.97;;;14.99;87.13
65758;BME280;52495;52.208;5.158;2022-09-09T05:47:50;100556.50;;;15.02;87.00
65758;BME280;52495;52.208;5.158;2022-09-09T05:50:18;100559.88;;;15.05;87.34
65758;BME280;52495;52.208;5.158;2022-09-09T05:52:45;100572.81;;;15.06;87.67
65758;BME280;52495;52.208;5.158;2022-09-09T05:55:13;100564.91;;;15.09;87.70
65758;BME280;52495;52.208;5.158;2022-09-09T05:57:41;100575.22;;;15.11;87.84
65758;BME280;52495;52.208;5.158;2022-09-09T06:00:08;100572.41;;;15.17;87.32
65758;BME280;52495;52.208;5.158;2022-09-09T06:02:39;100581.88;;;15.18;87.37
65758;BME280;52495;52.208;5.158;2022-09-09T06:05:07;100566.88;;;15.25;86.84
65758;BME280;52495;52.208;5.158;2022-09-09T06:07:34;100575.47;;;15.27;87.34
65758;BME280;52495;52.208;5.158;2022-09-09T06:10:01;100578.00;;;15.28;87.39
65758;BME280;52495;52.208;5.158;2022-09-09T06:12:28;100565.69;;;15.32;87.21
65758;BME280;52495;52.208;5.158;2022-09-09T06:14:56;100566.44;;;15.36;86.89
65758;BME280;52495;52.208;5.158;2022-09-09T06:17:23;100567.97;;;15.40;86.65
65758;BME280;52495;52.208;5.158;2022-09-09T06:19:50;100570.53;;;15.41;87.19
65758;BME280;52495;52.208;5.158;2022-09-09T06:22:18;100566.69;;;15.50;86.26
65758;BME280;52495;52.208;5.158;2022-09-09T06:24:45;100572.72;;;15.51;86.43
65758;BME280;52495;52.208;5.158;2022-09-09T06:27:11;100570.22;;;15.49;86.96
65758;BME280;52495;52.208;5.158;2022-09-09T06:29:38;100571.78;;;15.53;87.04
65758;BME280;52495;52.208;5.158;2022-09-09T06:32:07;100566.41;;;15.56;87.17
65758;BME280;52495;52.208;5.158;2022-09-09T06:34:34;100561.94;;;15.60;87.21
65758;BME280;52495;52.208;5.158;2022-09-09T06:37:01;100570.47;;;15.63;87.28
65758;BME280;52495;52.208;5.158;2022-09-09T06:39:34;100565.06;;;15.68;87.38
65758;BME280;52495;52.208;5.158;2022-09-09T06:42:01;100561.28;;;15.75;87.05
65758;BME280;52495;52.208;5.158;2022-09-09T06:44:47;100556.78;;;15.79;86.91
65758;BME280;52495;52.208;5.158;2022-09-09T06:47:33;100555.75;;;15.83;87.09
65758;BME280;52495;52.208;5.158;2022-09-09T06:50:00;100551.13;;;15.90;86.83
65758;BME280;52495;52.208;5.158;2022-09-09T06:52:28;100553.63;;;15.93;87.08
65758;BME280;52495;52.208;5.158;2022-09-09T06:54:55;100557.69;;;15.99;86.74
65758;BME280;52495;52.208;5.158;2022-09-09T06:57:24;100557.56;;;16.02;86.61
65758;BME280;52495;52.208;5.158;2022-09-09T06:59:51;100561.56;;;16.09;86.19
65758;BME280;52495;52.208;5.158;2022-09-09T07:02:19;100566.91;;;16.06;85.76
65758;BME280;52495;52.208;5.158;2022-09-09T07:04:48;100572.78;;;16.11;86.04
65758;BME280;52495;52.208;5.158;2022-09-09T07:07:17;100577.75;;;16.16;85.99
65758;BME280;52495;52.208;5.158;2022-09-09T07:09:44;100574.75;;;16.25;86.13
65758;BME280;52495;52.208;5.158;2022-09-09T07:12:10;100574.41;;;16.33;86.44
65758;BME280;52495;52.208;5.158;2022-09-09T07:14:45;100573.00;;;16.45;85.66
65758;BME280;52495;52.208;5.158;2022-09-09T07:17:12;100571.66;;;16.55;85.85
65758;BME280;52495;52.208;5.158;2022-09-09T07:19:39;100568.53;;;16.66;85.19
65758;BME280;52495;52.208;5.158;2022-09-09T07:22:07;100562.06;;;16.75;85.00
65758;BME280;52495;52.208;5.158;2022-09-09T07:24:34;100568.81;;;16.79;84.20
65758;BME280;52495;52.208;5.158;2022-09-09T07:27:01;100562.38;;;16.86;83.85
65758;BME280;52495;52.208;5.158;2022-09-09T07:29:28;100572.81;;;16.86;83.16
65758;BME280;52495;52.208;5.158;2022-09-09T07:31:56;100570.91;;;16.90;82.43
65758;BME280;52495;52.208;5.158;2022-09-09T07:34:28;100572.44;;;16.94;82.65
65758;BME280;52495;52.208;5.158;2022-09-09T07:36:55;100572.44;;;16.94;82.50
65758;BME280;52495;52.208;5.158;2022-09-09T07:39:24;100572.41;;;16.95;82.05
65758;BME280;52495;52.208;5.158;2022-09-09T07:41:52;100570.13;;;17.07;81.96
65758;BME280;52495;52.208;5.158;2022-09-09T07:44:21;100565.81;;;17.06;81.74
65758;BME280;52495;52.208;5.158;2022-09-09T07:46:55;100570.19;;;17.05;81.37
65758;BME280;52495;52.208;5.158;2022-09-09T07:49:28;100563.28;;;17.04;81.54
65758;BME280;52495;52.208;5.158;2022-09-09T07:51:54;100565.66;;;17.09;81.26
65758;BME280;52495;52.208;5.158;2022-09-09T07:54:21;100568.66;;;17.19;80.61
65758;BME280;52495;52.208;5.158;2022-09-09T07:56:51;100566.97;;;17.18;80.88
65758;BME280;52495;52.208;5.158;2022-09-09T07:59:20;100570.38;;;17.20;80.38
65758;BME280;52495;52.208;5.158;2022-09-09T08:01:50;100577.13;;;17.24;80.73
65758;BME280;52495;52.208;5.158;2022-09-09T08:04:19;100562.78;;;17.33;79.96
65758;BME280;52495;52.208;5.158;2022-09-09T08:06:47;100560.31;;;17.29;79.68
65758;BME280;52495;52.208;5.158;2022-09-09T08:09:16;100559.59;;;17.26;79.68
65758;BME280;52495;52.208;5.158;2022-09-09T08:11:45;100577.72;;;17.29;79.58
65758;BME280;52495;52.208;5.158;2022-09-09T08:14:13;100565.44;;;17.31;79.58
65758;BME280;52495;52.208;5.158;2022-09-09T08:16:42;100558.69;;;17.27;79.26
65758;BME280;52495;52.208;5.158;2022-09-09T08:19:11;100565.44;;;17.31;79.43
65758;BME280;52495;52.208;5.158;2022-09-09T08:21:39;100560.91;;;17.35;78.67
65758;BME280;52495;52.208;5.158;2022-09-09T08:24:07;100567.13;;;17.32;78.80
65758;BME280;52495;52.208;5.158;2022-09-09T08:26:35;100568.13;;;17.47;77.91
65758;BME280;52495;52.208;5.158;2022-09-09T08:29:03;100571.44;;;17.51;78.44
65758;BME280;52495;52.208;5.158;2022-09-09T08:31:32;100568.03;;;17.49;77.67
65758;BME280;52495;52.208;5.158;2022-09-09T08:33:59;100572.81;;;17.58;77.72
65758;BME280;52495;52.208;5.158;2022-09-09T08:36:28;100578.38;;;17.68;76.88
65758;BME280;52495;52.208;5.158;2022-09-09T08:38:56;100567.94;;;17.68;76.58
65758;BME280;52495;52.208;5.158;2022-09-09T08:41:32;100582.38;;;17.75;76.82
65758;BME280;52495;52.208;5.158;2022-09-09T08:44:04;100582.75;;;17.85;76.18
65758;BME280;52495;52.208;5.158;2022-09-09T08:46:35;100579.97;;;17.88;75.50
65758;BME280;52495;52.208;5.158;2022-09-09T08:49:05;100581.59;;;17.90;76.29
65758;BME280;52495;52.208;5.158;2022-09-09T08:51:38;100583.88;;;17.97;75.54
65758;BME280;52495;52.208;5.158;2022-09-09T08:54:05;100581.16;;;18.00;74.76
65758;BME280;52495;52.208;5.158;2022-09-09T08:56:32;100580.28;;;17.99;74.84
65758;BME280;52495;52.208;5.158;2022-09-09T08:59:01;100583.03;;;17.96;74.92
65758;BME280;52495;52.208;5.158;2022-09-09T09:01:45;100589.50;;;17.89;74.82
65758;BME280;52495;52.208;5.158;2022-09-09T09:04:28;100588.22;;;17.80;75.04
65758;BME280;52495;52.208;5.158;2022-09-09T09:06:59;100589.91;;;17.81;75.89
65758;BME280;52495;52.208;5.158;2022-09-09T09:09:32;100587.88;;;17.86;75.47
65758;BME280;52495;52.208;5.158;2022-09-09T09:12:10;100581.16;;;17.82;75.95
65758;BME280;52495;52.208;5.158;2022-09-09T09:14:41;100589.50;;;17.89;75.71
65758;BME280;52495;52.208;5.158;2022-09-09T09:17:11;100590.09;;;17.94;75.60
65758;BME280;52495;52.208;5.158;2022-09-09T09:19:40;100592.66;;;17.96;74.96
65758;BME280;52495;52.208;5.158;2022-09-09T09:22:10;100594.50;;;17.94;75.19
65758;BME280;52495;52.208;5.158;2022-09-09T09:24:42;100594.41;;;17.95;75.09
65758;BME280;52495;52.208;5.158;2022-09-09T09:27:13;100596.19;;;17.95;75.19
65758;BME280;52495;52.208;5.158;2022-09-09T09:29:43;100598.88;;;17.93;75.64
65758;BME280;52495;52.208;5.158;2022-09-09T09:32:13;100597.94;;;17.94;75.25
65758;BME280;52495;52.208;5.158;2022-09-09T09:34:41;100602.16;;;17.97;75.26
65758;BME280;52495;52.208;5.158;2022-09-09T09:37:12;100598.66;;;17.98;75.37
65758;BME280;52495;52.208;5.158;2022-09-09T09:39:42;100599.56;;;17.97;75.13
65758;BME280;52495;52.208;5.158;2022-09-09T09:42:09;100592.88;;;17.91;75.22
65758;BME280;52495;52.208;5.158;2022-09-09T09:44:40;100596.47;;;17.88;75.51
65758;BME280;52495;52.208;5.158;2022-09-09T09:47:14;100603.50;;;17.88;75.33
65758;BME280;52495;52.208;5.158;2022-09-09T09:49:51;100594.72;;;17.89;75.21
65758;BME280;52495;52.208;5.158;2022-09-09T09:52:18;100606.00;;;17.89;75.29
65758;BME280;52495;52.208;5.158;2022-09-09T09:54:47;100606.16;;;17.86;76.15
65758;BME280;52495;52.208;5.158;2022-09-09T09:57:15;100600.19;;;17.84;76.33
65758;BME280;52495;52.208;5.158;2022-09-09T09:59:44;100595.91;;;17.83;78.61
65758;BME280;52495;52.208;5.158;2022-09-09T10:02:24;100594.88;;;17.86;78.26
65758;BME280;52495;52.208;5.158;2022-09-09T10:05:00;100592.88;;;17.91;78.33
65758;BME280;52495;52.208;5.158;2022-09-09T10:07:27;100598.88;;;17.93;79.07
65758;BME280;52495;52.208;5.158;2022-09-09T10:09:54;100596.09;;;17.96;78.57
65758;BME280;52495;52.208;5.158;2022-09-09T10:12:24;100595.97;;;17.99;78.40
65758;BME280;52495;52.208;5.158;2022-09-09T10:14:57;100600.09;;;18.03;77.91
65758;BME280;52495;52.208;5.158;2022-09-09T10:17:30;100592.03;;;18.08;77.71
65758;BME280;52495;52.208;5.158;2022-09-09T10:20:04;100593.16;;;18.20;77.74
65758;BME280;52495;52.208;5.158;2022-09-09T10:22:39;100589.09;;;18.30;77.81
65758;BME280;52495;52.208;5.158;2022-09-09T10:25:14;100592.16;;;18.39;77.23
65758;BME280;52495;52.208;5.158;2022-09-09T10:27:49;100596.19;;;18.44;77.33
65758;BME280;52495;52.208;5.158;2022-09-09T10:30:19;100605.91;;;18.42;78.24
65758;BME280;52495;52.208;5.158;2022-09-09T10:32:49;100601.84;;;18.37;79.55
65758;BME280;52495;52.208;5.158;2022-09-09T10:35:27;100594.16;;;18.33;80.46
65758;BME280;52495;52.208;5.158;2022-09-09T10:40:46;100594.94;;;18.35;83.28
65758;BME280;52495;52.208;5.158;2022-09-09T10:43:20;100593.94;;;18.54;82.26
65758;BME280;52495;52.208;5.158;2022-09-09T10:45:52;100583.66;;;18.67;81.76
65758;BME280;52495;52.208;5.158;2022-09-09T10:48:31;100585.84;;;18.75;82.79
65758;BME280;52495;52.208;5.158;2022-09-09T10:51:10;100584.81;;;18.93;82.41
65758;BME280;52495;52.208;5.158;2022-09-09T10:53:43;100585.72;;;18.92;81.58
65758;BME280;52495;52.208;5.158;2022-09-09T10:56:12;100585.72;;;18.92;81.50
65758;BME280;52495;52.208;5.158;2022-09-09T10:58:42;100578.69;;;18.94;81.48
65758;BME280;52495;52.208;5.158;2022-09-09T11:01:13;100575.78;;;18.99;80.30
65758;BME280;52495;52.208;5.158;2022-09-09T11:03:43;100581.34;;;19.09;80.84
65758;BME280;52495;52.208;5.158;2022-09-09T11:06:14;100587.25;;;19.13;80.89
65758;BME280;52495;52.208;5.158;2022-09-09T11:08:43;100576.22;;;19.22;81.00
65758;BME280;52495;52.208;5.158;2022-09-09T11:11:11;100573.84;;;19.33;80.14
65758;BME280;52495;52.208;5.158;2022-09-09T11:13:42;100573.75;;;19.35;78.25
65758;BME280;52495;52.208;5.158;2022-09-09T11:16:16;100574.50;;;19.37;78.01
65758;BME280;52495;52.208;5.158;2022-09-09T11:18:47;100578.91;;;19.36;76.94
65758;BME280;52495;52.208;5.158;2022-09-09T11:21:16;100578.63;;;19.41;77.33
65758;BME280;52495;52.208;5.158;2022-09-09T11:23:47;100574.66;;;19.34;76.35
65758;BME280;52495;52.208;5.158;2022-09-09T11:26:18;100576.75;;;19.29;76.46
65758;BME280;52495;52.208;5.158;2022-09-09T11:28:52;100569.22;;;19.22;76.39
65758;BME280;52495;52.208;5.158;2022-09-09T11:31:30;100570.25;;;19.20;76.89
65758;BME280;52495;52.208;5.158;2022-09-09T11:34:10;100573.97;;;19.16;75.99
65758;BME280;52495;52.208;5.158;2022-09-09T11:36:53;100570.50;;;19.15;76.37
65758;BME280;52495;52.208;5.158;2022-09-09T11:39:32;100567.72;;;19.18;77.42
65758;BME280;52495;52.208;5.158;2022-09-09T11:42:07;100559.41;;;19.26;76.81
65758;BME280;52495;52.208;5.158;2022-09-09T11:44:33;100568.03;;;19.28;76.48
65758;BME280;52495;52.208;5.158;2022-09-09T11:47:00;100558.41;;;19.29;75.99
65758;BME280;52495;52.208;5.158;2022-09-09T11:49:28;100561.69;;;19.32;76.11
65758;BME280;52495;52.208;5.158;2022-09-09T11:51:56;100564.38;;;19.31;76.92
65758;BME280;52495;52.208;5.158;2022-09-09T11:54:28;100563.66;;;19.29;77.02
65758;BME280;52495;52.208;5.158;2022-09-09T11:56:55;100559.41;;;19.26;76.39
65758;BME280;52495;52.208;5.158;2022-09-09T11:59:22;100568.59;;;19.03;77.37
65758;BME280;52495;52.208;5.158;2022-09-09T12:01:50;100570.16;;;18.75;78.12
65758;BME280;52495;52.208;5.158;2022-09-09T12:04:29;100572.75;;;18.75;77.84
65758;BME280;52495;52.208;5.158;2022-09-09T12:06:58;100568.88;;;18.50;79.62
65758;BME280;52495;52.208;5.158;2022-09-09T12:09:30;100574.78;;;18.38;80.79
65758;BME280;52495;52.208;5.158;2022-09-09T12:12:05;100578.94;;;18.42;81.10
65758;BME280;52495;52.208;5.158;2022-09-09T12:14:36;100580.19;;;18.34;82.47
65758;BME280;52495;52.208;5.158;2022-09-09T12:17:09;100568.53;;;18.40;82.87
65758;BME280;52495;52.208;5.158;2022-09-09T12:19:37;100571.84;;;18.44;83.13
65758;BME280;52495;52.208;5.158;2022-09-09T12:22:04;100571.22;;;18.55;82.60
65758;BME280;52495;52.208;5.158;2022-09-09T12:24:34;100566.34;;;18.64;81.42
65758;BME280;52495;52.208;5.158;2022-09-09T12:27:05;100563.72;;;18.64;81.54
65758;BME280;52495;52.208;5.158;2022-09-09T12:29:37;100570.97;;;18.75;81.58
65758;BME280;52495;52.208;5.158;2022-09-09T12:32:06;100565.72;;;18.91;81.88
65758;BME280;52495;52.208;5.158;2022-09-09T12:34:35;100569.09;;;19.09;80.24
65758;BME280;52495;52.208;5.158;2022-09-09T12:37:06;100566.44;;;19.25;79.20
65758;BME280;52495;52.208;5.158;2022-09-09T12:39:37;100560.44;;;19.23;77.66
65758;BME280;52495;52.208;5.158;2022-09-09T12:42:14;100557.84;;;19.23;77.58
65758;BME280;52495;52.208;5.158;2022-09-09T12:44:49;100558.88;;;19.21;77.02
65758;BME280;52495;52.208;5.158;2022-09-09T12:47:16;100564.50;;;19.13;76.69
65758;BME280;52495;52.208;5.158;2022-09-09T12:49:45;100561.50;;;19.05;76.92
65758;BME280;52495;52.208;5.158;2022-09-09T12:52:17;100555.44;;;19.04;77.38
65758;BME280;52495;52.208;5.158;2022-09-09T12:54:46;100559.81;;;19.04;76.96
65758;BME280;52495;52.208;5.158;2022-09-09T12:57:13;100556.44;;;19.02;77.41
65758;BME280;52495;52.208;5.158;2022-09-09T12:59:41;100552.41;;;18.96;76.99
65758;BME280;52495;52.208;5.158;2022-09-09T13:02:11;100552.66;;;18.91;77.73
65758;BME280;52495;52.208;5.158;2022-09-09T13:04:42;100549.09;;;18.92;76.93
65758;BME280;52495;52.208;5.158;2022-09-09T13:07:10;100551.25;;;18.86;77.04
65758;BME280;52495;52.208;5.158;2022-09-09T13:09:38;100554.44;;;18.75;77.54
65758;BME280;52495;52.208;5.158;2022-09-09T13:12:05;100553.84;;;18.70;77.45
65758;BME280;52495;52.208;5.158;2022-09-09T13:14:38;100550.84;;;18.61;77.95